Aérodrome :
LOGIN :

S'inscrire | Disclaimer

   EN    FR    IT 

 










Légende :    VFR   VFR Marginal   IFR   IFR Intensif   IFR Très Intensif
Visi : 
Plafond : 
>= 8 km
>= 3000ft
5 à 8 km
1000 à 3000 ft
1500m à 5 km
500 à 1000 ft
800 à 1500m
200 à 500 ft
< 800m
< 200 ft
Symboles :   Orages  Brouillard  Fortes neiges  Fortes précipitations  Vent > 20 kt
SIGMETs :   Divers  Orages  Givrage  Turbulence  Onde Orograph.  Cendres Volcan.







- Altitude de l'aérodrome : 1906 ft
- Code IATA : INN


LOWI - Innsbruck

DERNIER METAR :
  • 261820Z 06010KT 040V100 CAVOK 21/08 Q1018 NOSIG

METARs EXPIRÉS :
  • 261750Z 07008KT 040V110 CAVOK 22/08 Q1018 NOSIG
  • 261720Z 08008KT 040V110 9999 FEW080 23/08 Q1017 NOSIG
  • 261650Z 08010KT 050V110 9999 FEW080 24/07 Q1017 NOSIG
  • 261620Z 07012KT 9999 FEW080 24/07 Q1017 NOSIG
  • 261550Z 07009KT 040V110 9999 FEW080 25/06 Q1017 NOSIG

TAF TAF LOWI
Valide du 26 à 18h jusqu'au 27 à 18h UTC


261715Z 2618/2718 07007KT 9999 FEW080 TX26/2712Z TN09/2704Z
BECMG 2618/2620 27004KT CAVOK
BECMG 2708/2710 08008KT 9999 FEW070
Pas de NOTAMs connus pour ce terrain.



MET'MAP, la Météo Aéronautique d'un coup d'oeil ! - Copyright ORBIFLY Décembre 2007 - Disclaimer

ORBIFLY MET'MAP TEAM :

Programmation & Développement : Alexandra Zaïnal
Conception & Développement : Baudouin d'Aumeries
Co-Programmation & Développement : Marc-Olivier Méhu
Soutien technique & logistique : Manuel Goepfert

Contact : metmap@orbifly.com




SOURCES & CREDITS :

   NOAA